createdAt,value
2022-09-12T00:01:19.465Z,99845.66
2022-09-12T00:04:22.514Z,99853.63
2022-09-12T00:07:25.042Z,99857.91
2022-09-12T00:10:27.957Z,99845.00
2022-09-12T00:13:30.481Z,99849.34
2022-09-12T00:16:35.792Z,99841.28
2022-09-12T00:19:38.491Z,99838.84
2022-09-12T00:22:42.349Z,99848.44
2022-09-12T00:25:48.061Z,99850.19
2022-09-12T00:28:51.133Z,99848.91
2022-09-12T00:31:53.687Z,99840.84
2022-09-12T00:34:57.035Z,99841.37
2022-09-12T00:37:59.638Z,99841.22
2022-09-12T00:41:02.472Z,99851.41
2022-09-12T00:44:11.038Z,99850.81
2022-09-12T00:47:25.063Z,99849.66
2022-09-12T00:50:28.052Z,99853.91
2022-09-12T00:53:31.548Z,99857.25
2022-09-12T00:56:35.773Z,99854.03
2022-09-12T00:59:44.389Z,99850.00
2022-09-12T01:02:50.573Z,99849.31
2022-09-12T01:06:35.398Z,99851.59
2022-09-12T01:09:39.678Z,99843.81
2022-09-12T01:12:44.161Z,99844.97
2022-09-12T01:15:47.162Z,99850.28
2022-09-12T01:19:09.226Z,99848.72
2022-09-12T01:22:30.119Z,99842.13
2022-09-12T01:25:54.114Z,99846.59
2022-09-12T01:29:29.726Z,99839.44
2022-09-12T01:33:15.349Z,99841.97
2022-09-12T01:36:38.231Z,99845.59
2022-09-12T01:39:59.186Z,99854.06
2022-09-12T01:43:06.722Z,99852.50
2022-09-12T01:46:17.785Z,99856.81
2022-09-12T01:49:26.634Z,99862.88
2022-09-12T01:52:43.058Z,99859.81
2022-09-12T01:55:51.380Z,99859.91
2022-09-12T01:59:25.315Z,99857.41
2022-09-12T02:02:34.147Z,99861.78
2022-09-12T02:05:46.146Z,99857.13
2022-09-12T02:08:55.108Z,99851.66
2022-09-12T02:12:00.900Z,99854.06
2022-09-12T02:15:08.638Z,99848.22
2022-09-12T02:18:16.078Z,99846.81
2022-09-12T02:21:20.215Z,99843.97
2022-09-12T02:24:25.808Z,99842.75
2022-09-12T02:27:37.843Z,99837.72
2022-09-12T02:30:49.476Z,99843.44
2022-09-12T02:34:15.647Z,99838.91
2022-09-12T02:37:21.545Z,99842.25
2022-09-12T02:40:24.729Z,99847.53
2022-09-12T02:43:28.160Z,99842.69
2022-09-12T02:46:42.719Z,99847.75
2022-09-12T02:49:46.204Z,99846.38
2022-09-12T02:52:49.147Z,99855.00
2022-09-12T02:55:54.740Z,99855.03
2022-09-12T02:59:05.252Z,99862.13
2022-09-12T03:02:36.867Z,99855.16
2022-09-12T03:05:49.672Z,99866.31
2022-09-12T03:09:03.158Z,99856.56
2022-09-12T03:12:35.101Z,99861.59
2022-09-12T03:16:09.045Z,99863.56
2022-09-12T03:19:20.178Z,99871.09
2022-09-12T03:22:38.967Z,99878.37
2022-09-12T03:25:48.758Z,99881.41
2022-09-12T03:28:53.233Z,99881.88
2022-09-12T03:31:58.589Z,99875.56
2022-09-12T03:35:01.398Z,99883.94
2022-09-12T03:38:04.314Z,99880.19
2022-09-12T03:41:08.550Z,99872.78
2022-09-12T03:44:11.115Z,99876.69
2022-09-12T03:47:14.111Z,99877.13
2022-09-12T03:50:16.702Z,99868.22
2022-09-12T03:53:19.568Z,99873.50
2022-09-12T03:56:22.646Z,99876.84
2022-09-12T03:59:26.060Z,99875.16
2022-09-12T04:02:29.511Z,99879.34
2022-09-12T04:05:33.939Z,99873.81
2022-09-12T04:08:37.692Z,99878.91
2022-09-12T04:11:40.748Z,99878.22
2022-09-12T04:15:08.570Z,99872.78
2022-09-12T04:18:43.099Z,99877.28
2022-09-12T04:21:45.745Z,99883.16
2022-09-12T04:24:48.623Z,99883.97
2022-09-12T04:27:54.953Z,99877.13
2022-09-12T04:31:32.514Z,99874.59
2022-09-12T04:34:38.559Z,99875.72
2022-09-12T04:37:41.131Z,99876.59
2022-09-12T04:40:44.150Z,99890.50
2022-09-12T04:43:51.782Z,99893.72
2022-09-12T04:46:54.612Z,99885.97
2022-09-12T04:49:57.345Z,99896.44
2022-09-12T04:53:00.192Z,99897.41
2022-09-12T04:56:08.153Z,99900.19
2022-09-12T05:00:15.718Z,99894.81
2022-09-12T05:03:43.486Z,99898.88
2022-09-12T05:06:47.632Z,99896.94
2022-09-12T05:09:50.438Z,99899.25
2022-09-12T05:12:54.085Z,99904.09
2022-09-12T05:21:13.533Z,99908.28
2022-09-12T05:24:16.490Z,99916.81
2022-09-12T05:27:19.202Z,99925.25
2022-09-12T05:30:23.388Z,99931.34
2022-09-12T05:33:25.963Z,99933.97
2022-09-12T05:36:31.670Z,99921.53
2022-09-12T05:39:36.851Z,99917.87
2022-09-12T05:46:32.959Z,99936.16
2022-09-12T05:49:39.627Z,99941.75
2022-09-12T17:27:30.917Z,99847.22
2022-09-12T17:30:36.206Z,99853.28
2022-09-12T17:33:41.883Z,99846.03
2022-09-12T17:36:46.003Z,99851.66
2022-09-12T17:40:09.566Z,99870.06
2022-09-12T17:43:14.349Z,99861.75
2022-09-12T17:46:38.845Z,99871.47
2022-09-12T18:39:52.798Z,99912.88
2022-09-12T18:52:56.674Z,99922.59
2022-09-12T18:56:11.145Z,99921.44
2022-09-12T19:00:12.661Z,99923.28
2022-09-12T19:12:50.829Z,99929.88
2022-09-12T19:15:53.688Z,99920.22
2022-09-12T19:18:58.270Z,99923.16
2022-09-12T19:22:03.354Z,99925.72
2022-09-12T19:25:06.730Z,99923.22
2022-09-12T19:28:22.215Z,99925.72
2022-09-12T19:37:01.459Z,99921.88
2022-09-12T19:40:05.785Z,99928.03
2022-09-12T19:43:09.538Z,99925.59
2022-09-12T19:46:25.801Z,99926.81
2022-09-12T19:49:28.819Z,99928.00
2022-09-12T19:57:44.357Z,99933.06
2022-09-12T20:02:14.447Z,99936.50
2022-09-12T20:05:18.228Z,99928.91
2022-09-12T20:08:23.210Z,99932.56
2022-09-12T20:11:29.102Z,99929.91
2022-09-12T20:14:32.009Z,99926.53
2022-09-12T20:17:35.716Z,99923.28
2022-09-12T20:20:42.067Z,99914.56
2022-09-12T20:23:46.852Z,99916.28
2022-09-12T20:26:49.491Z,99918.94
2022-09-12T20:29:53.196Z,99920.59
2022-09-12T20:32:56.915Z,99926.16
2022-09-12T20:36:06.482Z,99935.97
2022-09-12T20:39:20.892Z,99935.75
2022-09-12T20:42:48.352Z,99938.47
2022-09-12T20:45:51.193Z,99937.94
2022-09-12T20:48:54.318Z,99944.62
2022-09-12T20:51:57.282Z,99951.94
2022-09-12T20:55:00.168Z,99954.75
2022-09-12T20:58:02.713Z,99961.34
2022-09-12T21:01:09.529Z,99955.19
2022-09-12T21:04:15.152Z,99943.56
2022-09-12T21:07:18.222Z,99944.22
2022-09-12T21:10:20.711Z,99947.44
2022-09-12T21:13:23.725Z,99944.62
2022-09-12T21:16:27.399Z,99949.47
2022-09-12T21:19:30.386Z,99947.50
2022-09-12T21:22:32.884Z,99954.75
2022-09-12T21:25:35.675Z,99958.72
2022-09-12T21:28:38.356Z,99967.50
2022-09-12T21:31:43.782Z,99965.94
2022-09-12T21:34:47.898Z,99969.56
2022-09-12T21:37:54.212Z,99975.91
2022-09-12T21:41:09.420Z,99968.91
2022-09-12T21:44:12.202Z,99980.31
2022-09-12T21:47:14.720Z,99984.09
2022-09-12T21:50:17.622Z,99981.28
2022-09-12T21:53:20.374Z,99988.28
2022-09-12T21:56:23.279Z,99982.72
2022-09-12T21:59:25.870Z,99996.72
2022-09-12T22:02:30.180Z,99995.88
2022-09-12T22:05:34.386Z,99999.94
2022-09-12T22:08:39.041Z,100009.84
2022-09-12T22:11:41.961Z,100008.03
2022-09-12T22:14:48.089Z,100009.91
2022-09-12T22:17:51.110Z,100004.19
2022-09-12T22:21:07.985Z,100004.19
2022-09-12T22:24:29.235Z,100013.25
2022-09-12T22:27:31.801Z,100016.34
2022-09-12T22:30:35.528Z,100001.00
2022-09-12T22:33:38.669Z,99997.91
2022-09-12T22:36:41.819Z,99998.63
2022-09-12T22:39:44.395Z,99999.72
2022-09-12T22:42:48.477Z,99997.31
2022-09-12T22:45:51.556Z,99996.78
2022-09-12T22:48:55.805Z,99987.84
2022-09-12T22:51:58.687Z,99992.06
2022-09-12T22:55:02.205Z,99982.66
2022-09-12T22:58:06.226Z,99991.34
2022-09-12T23:01:10.578Z,99997.50
2022-09-12T23:04:13.516Z,99998.47
2022-09-12T23:07:17.370Z,100001.81
2022-09-12T23:10:22.730Z,99997.19
2022-09-12T23:13:26.207Z,99996.22
2022-09-12T23:16:32.199Z,99980.75
2022-09-12T23:19:35.640Z,99989.50
2022-09-12T23:22:41.560Z,99989.66
2022-09-12T23:25:44.928Z,99989.50
2022-09-12T23:33:39.692Z,99993.87
2022-09-12T23:37:33.368Z,99989.81
2022-09-12T23:40:36.492Z,99990.06
2022-09-12T23:43:40.458Z,99983.94
2022-09-12T23:47:28.646Z,99985.06
2022-09-12T23:50:31.142Z,99980.88
2022-09-12T23:53:35.905Z,99977.53
2022-09-12T23:56:38.750Z,99985.78
2022-09-12T23:59:41.885Z,99984.19
